All
Boggabri Airport YBOG Weather
There is no TAF data available at YBOG or any nearby airports.
There is no METAR data available at YBOG. Showing METAR data for YGDH (21 mi SE).
Recent GUH METAR history (no data for YBOG)
| Date | Time (AEST) | Flight Rules | Wind Dir. | Speed | Type | Height AGL (ft) | Visibility | Temp (°C) | Temp (°F) | Dew Point (°C) | Dew Point (°F) | Rel. Humid. | Pressure | Density Altitude | Remarks |
|---|---|---|---|---|---|---|---|---|---|---|---|---|---|---|---|
| 05-May | 11:00AM | n/a | 140° | 4 kt | Missing | 19° | 66° | 15° | 59° | 78% | 1019 mb | 1,172 ft | |||
| 05-May | 10:00AM | n/a | 170° | 1 kt | Missing | 18° | 64° | 15° | 59° | 83% | 1019 mb | 1,052 ft | |||
| 05-May | 09:00AM | n/a | 180° | 5 kt | Missing | 17° | 62° | 15° | 59° | 88% | 1019 mb | 932 ft | |||
| 05-May | 08:00AM | n/a | 260° | 3 kt | Missing | 16° | 60° | 15° | 59° | 94% | 1019 mb | 812 ft | |||
| 05-May | 07:00AM | n/a | Calm | Missing | 16° | 60° | 16° | 60° | 100% | 1018 mb | 841 ft | ||||
| 05-May | 06:00AM | n/a | 30° | 4 kt | Missing | 17° | 62° | 16° | 60° | 94% | 1018 mb | 961 ft | |||
| 05-May | 05:00AM | n/a | 10° | 5 kt | Missing | 16° | 60° | 16° | 60° | 100% | 1018 mb | 841 ft | |||
| 05-May | 04:00AM | n/a | 80° | 3 kt | Missing | 16° | 60° | 16° | 60° | 100% | 1018 mb | 841 ft | |||
| 05-May | 03:00AM | n/a | 240° | 3 kt | Missing | 17° | 62° | 16° | 60° | 94% | 1017 mb | 991 ft | |||
| 05-May | 02:00AM | n/a | 180° | 4 kt | Missing | 17° | 62° | 16° | 60° | 94% | 1017 mb | 991 ft | |||
| 05-May | 01:00AM | n/a | 350° | 3 kt | Missing | 16° | 60° | 16° | 60° | 100% | 1018 mb | 841 ft | |||
| 05-May | 12:00AM | n/a | Calm | Missing | 17° | 62° | 15° | 59° | 88% | 1017 mb | 991 ft | ||||
| 04-May | 11:00PM | n/a | 200° | 7 kt | Missing | 17° | 62° | 15° | 59° | 88% | 1017 mb | 991 ft | |||
| 04-May | 10:00PM | n/a | 190° | 5 kt | Missing | 17° | 62° | 15° | 59° | 88% | 1017 mb | 991 ft | |||
| 04-May | 09:00PM | n/a | 150° | 6 kt | Missing | 17° | 62° | 15° | 59° | 88% | 1017 mb | 991 ft | |||
| 04-May | 08:00PM | n/a | 130° | 6 kt | Missing | 17° | 62° | 15° | 59° | 88% | 1017 mb | 991 ft | |||
| 04-May | 07:00PM | n/a | 130° | 8 kt | Missing | 17° | 62° | 15° | 59° | 88% | 1017 mb | 991 ft | |||
| 04-May | 06:00PM | n/a | 130° | 8 kt | Missing | 18° | 64° | 14° | 57° | 77% | 1017 mb | 1,111 ft | |||
| 04-May | 05:00PM | n/a | 120° | 5 kt | Missing | 20° | 68° | 14° | 57° | 68% | 1016 mb | 1,381 ft | |||
| 04-May | 04:00PM | n/a | 220° | 6 kt | Missing | 20° | 68° | 14° | 57° | 68% | 1016 mb | 1,381 ft | |||
| 04-May | 03:00PM | n/a | 280° | 6 kt | Missing | 25° | 77° | 11° | 51° | 41% | 1016 mb | 1,981 ft | |||
| 04-May | 02:00PM | n/a | 310° | 6 kt | Missing | 25° | 77° | 11° | 51° | 41% | 1016 mb | 1,981 ft | |||
| 04-May | 01:00PM | n/a | 320° | 5 kt | Missing | 24° | 75° | 11° | 51° | 44% | 1016 mb | 1,861 ft | |||
| 04-May | 12:00PM | n/a | 280° | 6 kt | Missing | 24° | 75° | 11° | 51° | 44% | 1017 mb | 1,831 ft |
Login
| Your browser is unsupported. upgrade your browser |
